sensor_id;sensor_type;location;lat;lon;timestamp;P1;durP1;ratioP1;P2;durP2;ratioP2
50649;SDS011;36621;60.058;30.346;2023-03-01T03:22:24;4.13;;;1.33;;
50649;SDS011;36621;60.058;30.346;2023-03-01T03:29:59;4.53;;;1.40;;
50649;SDS011;36621;60.058;30.346;2023-03-01T03:37:32;4.53;;;1.73;;
50649;SDS011;36621;60.058;30.346;2023-03-01T03:45:21;8.52;;;2.20;;
50649;SDS011;36621;60.058;30.346;2023-03-01T03:52:54;6.85;;;2.40;;
50649;SDS011;36621;60.058;30.346;2023-03-01T17:07:30;7.22;;;2.40;;
50649;SDS011;36621;60.058;30.346;2023-03-01T17:15:05;5.57;;;2.42;;
50649;SDS011;36621;60.058;30.346;2023-03-01T17:22:38;6.32;;;2.30;;
50649;SDS011;36621;60.058;30.346;2023-03-01T17:30:11;5.25;;;2.42;;
50649;SDS011;36621;60.058;30.346;2023-03-01T17:37:45;3.67;;;1.88;;
50649;SDS011;36621;60.058;30.346;2023-03-01T17:45:19;3.65;;;1.85;;
50649;SDS011;36621;60.058;30.346;2023-03-01T17:52:53;5.75;;;2.38;;
50649;SDS011;36621;60.058;30.346;2023-03-01T18:00:26;5.28;;;2.95;;
50649;SDS011;36621;60.058;30.346;2023-03-01T18:08:00;9.68;;;3.92;;
50649;SDS011;36621;60.058;30.346;2023-03-01T18:24:12;4.55;;;2.03;;
50649;SDS011;36621;60.058;30.346;2023-03-01T18:31:44;4.75;;;2.40;;
50649;SDS011;36621;60.058;30.346;2023-03-01T18:39:22;7.13;;;3.50;;
50649;SDS011;36621;60.058;30.346;2023-03-01T18:46:59;13.90;;;6.22;;
50649;SDS011;36621;60.058;30.346;2023-03-01T18:54:40;8.18;;;3.80;;
50649;SDS011;36621;60.058;30.346;2023-03-01T19:02:12;12.60;;;5.38;;
50649;SDS011;36621;60.058;30.346;2023-03-01T19:09:46;11.48;;;5.07;;
50649;SDS011;36621;60.058;30.346;2023-03-01T19:17:21;9.02;;;4.35;;
50649;SDS011;36621;60.058;30.346;2023-03-01T19:24:55;10.10;;;3.47;;
50649;SDS011;36621;60.058;30.346;2023-03-01T19:32:27;10.50;;;3.10;;
50649;SDS011;36621;60.058;30.346;2023-03-01T19:40:00;8.48;;;3.97;;
50649;SDS011;36621;60.058;30.346;2023-03-01T19:48:11;13.05;;;5.75;;
50649;SDS011;36621;60.058;30.346;2023-03-01T19:55:29;12.68;;;4.93;;
50649;SDS011;36621;60.058;30.346;2023-03-01T20:03:02;13.73;;;5.80;;
50649;SDS011;36621;60.058;30.346;2023-03-01T20:10:35;18.45;;;6.32;;
50649;SDS011;36621;60.058;30.346;2023-03-01T20:18:07;25.27;;;10.70;;
50649;SDS011;36621;60.058;30.346;2023-03-01T20:26:00;14.52;;;6.07;;
50649;SDS011;36621;60.058;30.346;2023-03-01T20:33:35;8.95;;;4.05;;
50649;SDS011;36621;60.058;30.346;2023-03-01T20:41:09;6.85;;;3.13;;
50649;SDS011;36621;60.058;30.346;2023-03-01T20:48:42;9.00;;;3.35;;
50649;SDS011;36621;60.058;30.346;2023-03-01T20:56:16;6.75;;;3.30;;
50649;SDS011;36621;60.058;30.346;2023-03-01T21:04:08;10.45;;;4.55;;
50649;SDS011;36621;60.058;30.346;2023-03-01T21:11:41;8.50;;;3.60;;
50649;SDS011;36621;60.058;30.346;2023-03-01T21:19:13;5.82;;;2.92;;
50649;SDS011;36621;60.058;30.346;2023-03-01T21:26:46;7.03;;;2.67;;
50649;SDS011;36621;60.058;30.346;2023-03-01T21:34:20;5.18;;;2.80;;
50649;SDS011;36621;60.058;30.346;2023-03-01T21:41:52;6.95;;;3.08;;
50649;SDS011;36621;60.058;30.346;2023-03-01T21:49:25;5.25;;;2.72;;
50649;SDS011;36621;60.058;30.346;2023-03-01T21:56:57;6.72;;;2.97;;
50649;SDS011;36621;60.058;30.346;2023-03-01T22:04:29;6.25;;;3.60;;
50649;SDS011;36621;60.058;30.346;2023-03-01T22:12:02;7.32;;;3.10;;
50649;SDS011;36621;60.058;30.346;2023-03-01T22:19:35;7.53;;;3.33;;
50649;SDS011;36621;60.058;30.346;2023-03-01T22:27:10;6.43;;;2.88;;
50649;SDS011;36621;60.058;30.346;2023-03-01T22:43:13;5.60;;;3.17;;
50649;SDS011;36621;60.058;30.346;2023-03-01T22:51:13;7.60;;;3.22;;
50649;SDS011;36621;60.058;30.346;2023-03-01T22:58:47;7.22;;;3.05;;
50649;SDS011;36621;60.058;30.346;2023-03-01T23:06:19;6.07;;;3.03;;
50649;SDS011;36621;60.058;30.346;2023-03-01T23:13:54;5.25;;;3.30;;
50649;SDS011;36621;60.058;30.346;2023-03-01T23:21:26;16.85;;;5.03;;
50649;SDS011;36621;60.058;30.346;2023-03-01T23:28:59;6.55;;;3.78;;
50649;SDS011;36621;60.058;30.346;2023-03-01T23:36:32;7.15;;;3.22;;
50649;SDS011;36621;60.058;30.346;2023-03-01T23:44:05;6.53;;;3.22;;
50649;SDS011;36621;60.058;30.346;2023-03-01T23:51:38;6.68;;;3.13;;
50649;SDS011;36621;60.058;30.346;2023-03-01T23:59:12;3.83;;;2.22;;
